| Date | Time | Temp. (oF) | Dew Point (oF) | Rel. Hum. (%) | Press. (in.) | Wind Dir. | Wind Speed (mph) | Hourly Rainfall (in.) |
|
|---|---|---|---|---|---|---|---|---|---|
| 1 | 11/18 | 00:00 | 37 | 34 | 91 | 30.14 | NW | 0 | 0.00 |
| 2 | 11/17 | 23:00 | 38 | 35 | 90 | 30.14 | NW | 0 | 0.00 |
| 3 | 11/17 | 22:00 | 40 | 35 | 84 | 30.15 | NW | 0 | 0.00 |
| 4 | 11/17 | 21:00 | 43 | 36 | 79 | 30.13 | NW | 0 | 0.00 |
| 5 | 11/17 | 20:00 | 44 | 36 | 76 | 30.13 | NW | 0 | 0.00 |
| 6 | 11/17 | 19:00 | 48 | 36 | 64 | 30.11 | NW | 0 | 0.00 |
| 7 | 11/17 | 18:00 | 50 | 36 | 60 | 30.10 | NW | 3 | 0.00 |
| 8 | 11/17 | 17:00 | 53 | 36 | 53 | 30.07 | NW | 1 | 0.00 |
| 9 | 11/17 | 16:00 | 56 | 35 | 47 | 30.06 | NW | 11 | 0.00 |
| 10 | 11/17 | 15:00 | 57 | 36 | 47 | 30.05 | NW | 9 | 0.00 |
| 11 | 11/17 | 14:00 | 58 | 37 | 46 | 30.05 | NW | 7 | 0.00 |
| 12 | 11/17 | 13:00 | 58 | 37 | 46 | 30.06 | NW | 8 | 0.00 |
| 13 | 11/17 | 12:00 | 58 | 40 | 52 | 30.08 | WNW | 9 | 0.00 |
| 14 | 11/17 | 11:00 | 55 | 39 | 57 | 30.10 | ESE | 4 | 0.00 |
| 15 | 11/17 | 10:00 | 51 | 40 | 68 | 30.11 | SE | 7 | 0.00 |
| 16 | 11/17 | 09:00 | 49 | 41 | 76 | 30.11 | ENE | 7 | 0.00 |
| 17 | 11/17 | 08:00 | 40 | 39 | 97 | 30.10 | NW | 4 | 0.00 |
| 18 | 11/17 | 07:00 | 37 | 35 | 94 | 30.08 | SE | 0 | 0.00 |
| 19 | 11/17 | 06:00 | 39 | 36 | 91 | 30.06 | SE | 0 | 0.00 |
| 20 | 11/17 | 05:00 | 40 | 37 | 89 | 30.04 | SE | 0 | 0.00 |
| 21 | 11/17 | 04:00 | 43 | 38 | 83 | 30.03 | SE | 0 | 0.00 |
| 22 | 11/17 | 03:00 | 46 | 39 | 79 | 30.02 | SE | 0 | 0.00 |
| 23 | 11/17 | 02:00 | 47 | 40 | 78 | 29.99 | SE | 4 | 0.00 |
| 24 | 11/17 | 01:00 | 48 | 42 | 80 | 29.98 | SE | 7 | 0.00 |